createdAt,value
2022-11-02T00:01:41.455Z,10.47
2022-11-02T00:04:11.788Z,10.90
2022-11-02T00:06:41.363Z,10.23
2022-11-02T00:09:10.850Z,10.70
2022-11-02T00:11:39.597Z,10.17
2022-11-02T00:14:08.251Z,10.30
2022-11-02T00:16:41.064Z,10.53
2022-11-02T00:19:11.385Z,9.83
2022-11-02T00:21:40.314Z,10.33
2022-11-02T00:24:10.145Z,10.23
2022-11-02T00:26:39.802Z,10.40
2022-11-02T00:29:09.705Z,10.10
2022-11-02T00:31:38.233Z,10.63
2022-11-02T00:34:06.875Z,10.37
2022-11-02T00:36:36.942Z,9.97
2022-11-02T00:39:05.746Z,10.40
2022-11-02T00:41:34.331Z,10.13
2022-11-02T00:44:03.037Z,10.73
2022-11-02T00:46:31.555Z,10.67
2022-11-02T00:49:00.177Z,11.10
2022-11-02T00:51:29.675Z,10.80
2022-11-02T00:53:59.620Z,11.13
2022-11-02T00:56:28.246Z,10.80
2022-11-02T00:58:57.810Z,11.37
2022-11-02T01:01:26.383Z,10.60
2022-11-02T01:03:57.341Z,11.07
2022-11-02T01:06:25.918Z,10.90
2022-11-02T01:08:55.638Z,10.43
2022-11-02T01:11:26.588Z,11.03
2022-11-02T01:13:55.487Z,11.00
2022-11-02T01:16:24.106Z,10.90
2022-11-02T01:18:54.376Z,10.60
2022-11-02T01:21:43.403Z,10.83
2022-11-02T01:24:12.214Z,11.20
2022-11-02T01:26:42.263Z,10.80
2022-11-02T01:29:12.869Z,11.20
2022-11-02T01:31:41.490Z,10.23
2022-11-02T01:34:10.083Z,10.83
2022-11-02T01:36:39.140Z,10.53
2022-11-02T01:39:08.056Z,10.93
2022-11-02T01:41:36.647Z,11.07
2022-11-02T01:44:31.238Z,10.30
2022-11-02T01:47:05.489Z,11.03
2022-11-02T01:49:38.110Z,10.67
2022-11-02T01:52:11.690Z,10.47
2022-11-02T01:54:51.945Z,10.47
2022-11-02T01:57:23.653Z,10.67
2022-11-02T01:59:58.299Z,10.60
2022-11-02T02:02:28.483Z,10.87
2022-11-02T02:05:10.183Z,10.70
2022-11-02T02:07:40.969Z,11.30
2022-11-02T02:10:10.519Z,11.00
2022-11-02T02:12:41.302Z,10.67
2022-11-02T02:15:12.632Z,10.20
2022-11-02T02:17:49.052Z,11.27
2022-11-02T02:20:34.148Z,10.90
2022-11-02T02:23:31.218Z,10.40
2022-11-02T02:26:59.234Z,10.97
2022-11-02T02:29:40.836Z,10.47
2022-11-02T02:32:18.481Z,10.43
2022-11-02T02:34:54.409Z,10.43
2022-11-02T02:37:28.907Z,10.80
2022-11-02T02:40:04.995Z,11.00
2022-11-02T02:42:42.574Z,10.03
2022-11-02T02:45:20.194Z,10.97
2022-11-02T02:47:53.763Z,10.20
2022-11-02T02:50:27.980Z,10.67
2022-11-02T02:52:58.435Z,10.20
2022-11-02T02:55:34.044Z,10.87
2022-11-02T02:58:04.490Z,10.33
2022-11-02T03:00:36.435Z,10.67
2022-11-02T03:03:06.693Z,10.93
2022-11-02T03:05:37.983Z,10.23
2022-11-02T03:08:14.780Z,10.47
2022-11-02T03:10:50.643Z,10.50
2022-11-02T03:13:37.272Z,10.77
2022-11-02T03:16:18.702Z,9.93
2022-11-02T03:18:50.785Z,10.87
2022-11-02T03:21:27.994Z,10.43
2022-11-02T03:24:02.537Z,10.30
2022-11-02T03:26:35.740Z,10.83
2022-11-02T03:29:11.075Z,10.57
2022-11-02T03:31:48.100Z,10.47
2022-11-02T03:34:28.118Z,10.13
2022-11-02T03:37:04.198Z,10.70
2022-11-02T03:39:39.853Z,10.53
2022-11-02T03:42:16.029Z,10.30
2022-11-02T03:44:49.113Z,10.77
2022-11-02T03:47:20.349Z,10.33
2022-11-02T03:49:51.819Z,10.67
2022-11-02T03:52:25.022Z,10.73
2022-11-02T03:55:02.017Z,10.73
2022-11-02T03:57:37.839Z,10.27
2022-11-02T04:00:13.112Z,10.70
2022-11-02T04:02:53.589Z,10.50
2022-11-02T04:05:28.870Z,9.93
2022-11-02T04:08:16.053Z,10.80
2022-11-02T04:10:59.966Z,11.07
2022-11-02T04:13:46.167Z,10.83
2022-11-02T04:16:14.973Z,10.47
2022-11-02T04:19:02.896Z,9.90
2022-11-02T04:21:32.502Z,10.50
2022-11-02T04:24:20.430Z,10.70
2022-11-02T04:26:49.847Z,10.43
2022-11-02T04:29:20.010Z,10.53
2022-11-02T04:31:49.706Z,9.90
2022-11-02T04:34:18.834Z,10.60
2022-11-02T04:36:47.929Z,10.87
2022-11-02T04:39:15.801Z,10.33
2022-11-02T04:41:44.423Z,10.67
2022-11-02T04:44:28.861Z,11.03
2022-11-02T04:47:04.406Z,10.53
2022-11-02T04:49:36.238Z,10.40
2022-11-02T04:52:07.384Z,10.03
2022-11-02T04:54:37.609Z,10.47
2022-11-02T04:57:08.213Z,11.30
2022-11-02T04:59:36.758Z,11.10
2022-11-02T05:02:06.248Z,10.80
2022-11-02T05:04:36.318Z,11.00
2022-11-02T05:07:07.757Z,10.50
2022-11-02T05:09:38.217Z,10.80
2022-11-02T05:12:07.718Z,10.53
2022-11-02T05:14:36.887Z,11.20
2022-11-02T05:17:05.531Z,10.53
2022-11-02T05:19:37.259Z,10.77
2022-11-02T05:22:07.212Z,10.53
2022-11-02T05:24:36.355Z,10.13
2022-11-02T05:27:06.689Z,10.40
2022-11-02T05:29:37.978Z,10.97
2022-11-02T05:32:07.333Z,10.33
2022-11-02T05:34:37.447Z,10.97
2022-11-02T05:37:06.218Z,10.40
2022-11-02T05:39:35.573Z,10.60
2022-11-02T05:42:05.010Z,10.60
2022-11-02T05:44:33.956Z,10.63
2022-11-02T05:47:02.872Z,10.60
2022-11-02T05:49:31.501Z,10.07
2022-11-02T05:52:01.524Z,10.80
2022-11-02T05:54:30.108Z,10.33
2022-11-02T05:56:59.151Z,10.80
2022-11-02T05:59:27.747Z,10.67
2022-11-02T06:01:56.449Z,10.23
2022-11-02T06:04:25.093Z,10.30
2022-11-02T06:06:53.768Z,10.93
2022-11-02T06:09:23.923Z,10.20
2022-11-02T06:11:52.551Z,10.43
2022-11-02T06:14:21.160Z,10.67
2022-11-02T06:16:49.773Z,10.20
2022-11-02T06:19:18.360Z,11.03
2022-11-02T06:21:48.545Z,10.53
2022-11-02T06:24:17.405Z,10.57
2022-11-02T06:26:47.387Z,10.97
2022-11-02T06:29:16.064Z,10.80
2022-11-02T06:31:44.752Z,10.83
2022-11-02T06:34:13.269Z,10.20
2022-11-02T06:36:41.907Z,11.10
2022-11-02T06:39:10.436Z,10.97
2022-11-02T06:41:38.992Z,11.17
2022-11-02T06:44:09.174Z,10.23
2022-11-02T06:46:37.723Z,10.03
2022-11-02T06:49:06.258Z,10.67
2022-11-02T06:51:34.887Z,11.07
2022-11-02T06:54:08.418Z,10.40
2022-11-02T06:56:37.380Z,11.17
2022-11-02T06:59:05.917Z,10.90
2022-11-02T07:01:36.554Z,10.93
2022-11-02T07:04:05.759Z,10.07
2022-11-02T07:06:34.626Z,10.33
2022-11-02T07:09:03.184Z,10.57
2022-11-02T07:11:31.914Z,10.07
2022-11-02T07:14:00.458Z,10.33
2022-11-02T07:16:29.061Z,10.20
2022-11-02T07:18:59.086Z,10.57
2022-11-02T07:21:27.660Z,10.43
2022-11-02T07:23:56.144Z,10.90
2022-11-02T07:26:24.763Z,10.63
2022-11-02T07:28:58.278Z,10.37
2022-11-02T07:31:27.972Z,10.70
2022-11-02T07:33:57.949Z,10.00
2022-11-02T07:36:26.526Z,10.00
2022-11-02T07:38:55.149Z,10.20
2022-11-02T07:41:23.716Z,10.07
2022-11-02T07:43:52.336Z,10.40
2022-11-02T07:46:27.692Z,10.37
2022-11-02T07:48:56.493Z,10.40
2022-11-02T07:51:26.495Z,9.97
2022-11-02T07:53:55.134Z,9.80
2022-11-02T07:56:23.673Z,10.23
2022-11-02T07:58:52.227Z,10.27
2022-11-02T08:01:20.889Z,10.63
2022-11-02T08:03:49.667Z,10.17
2022-11-02T08:06:18.195Z,10.33
2022-11-02T08:08:48.209Z,10.30
2022-11-02T08:11:16.834Z,9.87
2022-11-02T08:13:45.412Z,10.43
2022-11-02T08:16:14.027Z,9.90
2022-11-02T08:18:42.627Z,9.80
2022-11-02T08:21:11.180Z,10.17
2022-11-02T08:23:39.794Z,10.30
2022-11-02T08:26:09.785Z,9.80
2022-11-02T08:28:40.358Z,9.40
2022-11-02T08:31:13.483Z,9.77
2022-11-02T08:33:42.047Z,9.50
2022-11-02T08:36:11.700Z,9.63
2022-11-02T08:38:40.547Z,9.80
2022-11-02T08:41:10.504Z,10.03
2022-11-02T08:43:39.066Z,9.60
2022-11-02T08:46:16.417Z,9.60
2022-11-02T08:48:46.047Z,9.77
2022-11-02T08:51:14.733Z,9.40
2022-11-02T08:53:48.543Z,9.33
2022-11-02T08:56:21.384Z,9.43
2022-11-02T08:58:49.949Z,9.63
2022-11-02T09:01:18.565Z,9.33
2022-11-02T09:03:47.233Z,9.27
2022-11-02T09:06:15.848Z,9.10
2022-11-02T09:08:44.388Z,9.40
2022-11-02T09:11:13.080Z,9.17
2022-11-02T09:13:43.135Z,8.80
2022-11-02T09:16:11.776Z,9.40
2022-11-02T09:18:40.371Z,9.20
2022-11-02T09:21:09.234Z,9.37
2022-11-02T09:23:37.762Z,9.10
2022-11-02T09:26:06.530Z,9.10
2022-11-02T09:28:35.104Z,8.70
2022-11-02T09:31:08.930Z,9.07
2022-11-02T09:33:40.127Z,9.07
2022-11-02T09:36:09.863Z,9.17
2022-11-02T09:38:38.406Z,8.80
2022-11-02T09:41:35.010Z,8.80
2022-11-02T09:44:11.153Z,8.97
2022-11-02T09:47:55.753Z,8.90
2022-11-02T09:49:52.428Z,8.90
2022-11-02T09:52:29.883Z,9.13
2022-11-02T09:55:00.810Z,9.10
2022-11-02T09:57:31.942Z,9.10
2022-11-02T10:00:00.940Z,9.07
2022-11-02T10:02:44.212Z,8.93
2022-11-02T10:05:26.455Z,8.60
2022-11-02T10:08:15.574Z,9.03
2022-11-02T10:10:55.234Z,9.07
2022-11-02T10:13:35.886Z,8.93
2022-11-02T10:16:11.564Z,9.13
2022-11-02T10:18:43.394Z,8.83
2022-11-02T10:21:18.848Z,8.90
2022-11-02T10:23:52.475Z,8.70
2022-11-02T10:26:25.594Z,8.73
2022-11-02T10:29:00.523Z,8.80
2022-11-02T10:31:32.559Z,8.87
2022-11-02T10:34:24.696Z,9.17
2022-11-02T10:37:09.382Z,9.67
2022-11-02T10:39:45.634Z,9.60
2022-11-02T10:42:39.503Z,9.37
2022-11-02T10:45:36.549Z,8.90
2022-11-02T10:48:12.342Z,9.30
2022-11-02T10:50:49.777Z,8.97
2022-11-02T10:53:39.974Z,8.73
2022-11-02T10:56:17.185Z,8.83
2022-11-02T10:59:01.847Z,8.70
2022-11-02T11:01:32.547Z,8.80
2022-11-02T11:04:03.310Z,8.37
2022-11-02T11:06:38.458Z,9.40
2022-11-02T11:09:17.171Z,8.70
2022-11-02T11:11:55.886Z,8.60
2022-11-02T11:20:28.547Z,9.33
2022-11-02T11:23:19.708Z,9.00
2022-11-02T11:26:02.886Z,8.60
2022-11-02T11:28:34.281Z,8.57
2022-11-02T11:31:15.461Z,8.73
2022-11-02T11:33:49.962Z,8.93
2022-11-02T11:36:28.638Z,8.60
2022-11-02T11:39:01.754Z,8.87
2022-11-02T11:41:32.480Z,8.83
2022-11-02T11:44:02.882Z,8.97
2022-11-02T11:46:42.367Z,8.90
2022-11-02T11:49:35.979Z,8.87
2022-11-02T11:52:19.460Z,8.77
2022-11-02T11:54:57.390Z,8.43
2022-11-02T11:57:31.659Z,8.60
2022-11-02T12:00:05.056Z,8.63
2022-11-02T12:02:42.776Z,9.00
2022-11-02T12:05:16.627Z,8.87
2022-11-02T12:08:24.154Z,8.60
2022-11-02T12:11:19.176Z,8.70
2022-11-02T12:14:10.680Z,8.63
2022-11-02T12:17:02.177Z,8.53
2022-11-02T12:19:49.892Z,8.77
2022-11-02T12:22:26.390Z,8.87
2022-11-02T12:25:23.693Z,8.60
2022-11-02T12:28:02.937Z,8.70
2022-11-02T12:30:42.279Z,8.80
2022-11-02T12:33:25.394Z,8.70
2022-11-02T12:36:13.855Z,8.67
2022-11-02T12:39:07.805Z,8.67
2022-11-02T12:41:47.722Z,8.87
2022-11-02T12:45:09.551Z,8.83
2022-11-02T12:47:52.781Z,8.80
2022-11-02T12:50:47.047Z,8.80
2022-11-02T12:53:35.616Z,9.00
2022-11-02T12:56:07.814Z,8.97
2022-11-02T12:58:39.699Z,8.97
2022-11-02T13:01:18.732Z,9.13
2022-11-02T13:03:54.455Z,8.87
2022-11-02T13:06:31.052Z,8.70
2022-11-02T13:09:06.350Z,8.40
2022-11-02T13:11:40.431Z,8.80
2022-11-02T13:14:15.792Z,9.00
2022-11-02T13:16:52.215Z,8.90
2022-11-02T13:19:24.344Z,8.83
2022-11-02T13:21:57.605Z,8.90
2022-11-02T13:24:33.813Z,8.63
2022-11-02T13:27:21.818Z,8.67
2022-11-02T13:30:00.388Z,8.60
2022-11-02T13:32:35.662Z,8.50
2022-11-02T13:35:18.157Z,8.80
2022-11-02T13:37:52.714Z,8.90
2022-11-02T13:40:27.166Z,8.60
2022-11-02T13:44:05.786Z,8.63
2022-11-02T13:46:58.802Z,8.80
2022-11-02T13:49:32.760Z,8.40
2022-11-02T13:52:06.730Z,8.60
2022-11-02T13:54:42.581Z,8.47
2022-11-02T13:57:31.967Z,8.40
2022-11-02T14:00:01.207Z,8.70
2022-11-02T14:02:34.908Z,8.40
2022-11-02T14:05:05.442Z,8.50
2022-11-02T14:07:40.256Z,8.70
2022-11-02T14:10:16.503Z,8.43
2022-11-02T14:12:46.178Z,8.57
2022-11-02T14:15:53.705Z,8.70
2022-11-02T14:18:31.465Z,8.60
2022-11-02T14:21:41.581Z,8.63
2022-11-02T14:24:54.161Z,8.53
2022-11-02T14:27:31.784Z,8.47
2022-11-02T14:30:00.821Z,8.40
2022-11-02T14:32:54.020Z,8.47
2022-11-02T14:35:42.496Z,8.43
2022-11-02T14:38:50.040Z,8.30
2022-11-02T14:41:43.597Z,8.40
2022-11-02T14:45:08.640Z,8.57
2022-11-02T14:47:39.758Z,8.57
2022-11-02T14:50:15.929Z,8.40
2022-11-02T14:52:59.614Z,8.40
2022-11-02T14:55:33.019Z,8.33
2022-11-02T14:58:10.681Z,8.40
2022-11-02T15:00:57.397Z,8.73
2022-11-02T15:03:35.111Z,8.70
2022-11-02T15:06:07.591Z,8.70
2022-11-02T15:08:38.534Z,8.47
2022-11-02T15:11:45.888Z,8.50
2022-11-02T15:14:55.030Z,9.13
2022-11-02T15:18:00.807Z,8.60
2022-11-02T15:20:32.705Z,8.70
2022-11-02T15:23:30.988Z,8.67
2022-11-02T15:26:01.815Z,8.67
2022-11-02T15:28:35.958Z,8.77
2022-11-02T15:31:15.838Z,8.63
2022-11-02T15:33:48.014Z,8.70
2022-11-02T15:36:23.154Z,8.60
2022-11-02T15:38:54.363Z,8.60
2022-11-02T15:41:38.254Z,8.73
2022-11-02T15:44:29.112Z,8.70
2022-11-02T15:47:15.117Z,8.83
2022-11-02T15:50:18.387Z,8.90
2022-11-02T15:53:23.192Z,10.33
2022-11-02T15:56:11.797Z,12.63
2022-11-02T15:59:02.679Z,15.10
2022-11-02T16:01:33.291Z,13.80
2022-11-02T16:04:07.320Z,25.73
2022-11-02T16:06:47.137Z,14.50
2022-11-02T16:12:46.027Z,10.70
2022-11-02T16:15:28.014Z,67.27
2022-11-02T16:18:38.796Z,50.77
2022-11-02T16:21:11.882Z,29.80
2022-11-02T16:23:44.306Z,21.60
2022-11-02T16:26:22.238Z,18.40
2022-11-02T16:28:53.157Z,14.53
2022-11-02T16:31:25.220Z,13.23
2022-11-02T16:33:57.104Z,12.10
2022-11-02T16:36:28.367Z,11.03
2022-11-02T16:39:01.443Z,10.43
2022-11-02T16:41:33.823Z,10.10
2022-11-02T16:44:10.057Z,10.33
2022-11-02T16:46:44.473Z,10.03
2022-11-02T16:49:19.732Z,9.80
2022-11-02T16:51:53.902Z,9.93
2022-11-02T16:54:41.368Z,9.93
2022-11-02T16:57:18.084Z,9.87
2022-11-02T16:59:52.736Z,10.17
2022-11-02T17:02:33.355Z,10.20
2022-11-02T17:05:06.618Z,10.40
2022-11-02T17:07:40.406Z,10.70
2022-11-02T17:10:10.601Z,10.40
2022-11-02T17:12:45.267Z,10.60
2022-11-02T17:15:19.227Z,10.53
2022-11-02T17:17:48.530Z,11.03
2022-11-02T17:20:24.511Z,10.20
2022-11-02T17:23:00.247Z,10.17
2022-11-02T17:25:31.572Z,10.47
2022-11-02T17:28:02.742Z,10.63
2022-11-02T17:30:44.717Z,10.47
2022-11-02T17:33:29.019Z,10.20
2022-11-02T17:36:06.666Z,10.23
2022-11-02T17:38:35.733Z,10.37
2022-11-02T17:41:24.857Z,10.10
2022-11-02T17:43:52.460Z,10.57
2022-11-02T17:46:21.053Z,9.93
2022-11-02T17:48:49.627Z,10.20
2022-11-02T17:51:24.767Z,10.10
2022-11-02T17:53:53.587Z,10.33
2022-11-02T17:56:22.256Z,10.00
2022-11-02T17:58:50.830Z,10.33
2022-11-02T18:01:19.917Z,10.20
2022-11-02T18:03:48.665Z,10.53
2022-11-02T18:06:17.214Z,10.23
2022-11-02T18:09:04.519Z,10.13
2022-11-02T18:11:33.170Z,10.37
2022-11-02T18:14:01.713Z,10.53
2022-11-02T18:16:30.230Z,9.80
2022-11-02T18:18:58.893Z,10.33
2022-11-02T18:21:27.508Z,10.00
2022-11-02T18:23:57.411Z,10.13
2022-11-02T18:26:26.038Z,10.43
2022-11-02T18:28:54.489Z,11.00
2022-11-02T18:31:23.379Z,10.30
2022-11-02T18:33:52.948Z,11.17
2022-11-02T18:36:21.825Z,10.50
2022-11-02T18:38:50.348Z,11.40
2022-11-02T18:41:29.880Z,10.50
2022-11-02T18:44:05.630Z,10.23
2022-11-02T18:46:36.506Z,11.03
2022-11-02T18:49:05.009Z,10.20
2022-11-02T18:51:34.508Z,10.67
2022-11-02T18:54:04.983Z,11.10
2022-11-02T18:56:35.106Z,10.77
2022-11-02T18:59:03.942Z,11.03
2022-11-02T19:01:32.625Z,11.17
2022-11-02T19:04:02.250Z,10.93
2022-11-02T19:06:51.149Z,11.27
2022-11-02T19:09:23.177Z,10.17
2022-11-02T19:12:01.216Z,10.73
2022-11-02T19:14:31.890Z,10.83
2022-11-02T19:17:00.478Z,10.47
2022-11-02T19:19:29.359Z,10.60
2022-11-02T19:21:57.849Z,10.40
2022-11-02T19:24:26.865Z,10.43
2022-11-02T19:26:56.786Z,10.30
2022-11-02T19:29:25.334Z,10.80
2022-11-02T19:31:53.926Z,10.33
2022-11-02T19:34:23.021Z,10.40
2022-11-02T19:36:51.607Z,10.63
2022-11-02T19:39:20.188Z,11.07
2022-11-02T19:41:52.022Z,10.30
2022-11-02T19:44:22.242Z,10.47
2022-11-02T19:46:50.882Z,10.23
2022-11-02T19:49:19.554Z,10.50
2022-11-02T19:51:48.437Z,11.10
2022-11-02T19:54:17.048Z,10.93
2022-11-02T19:56:46.634Z,10.80
2022-11-02T19:59:15.266Z,10.53
2022-11-02T20:01:48.058Z,11.07
2022-11-02T20:04:16.710Z,10.47
2022-11-02T20:06:46.031Z,10.47
2022-11-02T20:09:17.244Z,10.37
2022-11-02T20:11:46.994Z,10.87
2022-11-02T20:14:17.446Z,10.60
2022-11-02T20:16:58.779Z,10.73
2022-11-02T20:19:36.052Z,10.40
2022-11-02T20:22:04.761Z,10.30
2022-11-02T20:24:33.273Z,10.80
2022-11-02T20:27:04.055Z,10.10
2022-11-02T20:29:32.627Z,10.17
2022-11-02T20:32:02.591Z,10.03
2022-11-02T20:34:31.139Z,9.90
2022-11-02T20:36:59.802Z,10.50
2022-11-02T20:39:28.299Z,10.53
2022-11-02T20:41:57.214Z,10.73
2022-11-02T20:44:26.088Z,10.50
2022-11-02T20:46:54.663Z,10.47
2022-11-02T20:49:51.715Z,11.00
2022-11-02T20:52:13.142Z,10.20
2022-11-02T20:54:41.663Z,11.00
2022-11-02T20:57:10.136Z,10.87
2022-11-02T20:59:38.755Z,10.57
2022-11-02T21:02:07.594Z,11.07
2022-11-02T21:04:38.035Z,10.33
2022-11-02T21:07:07.486Z,10.93
2022-11-02T21:09:36.190Z,10.70
2022-11-02T21:12:22.170Z,10.80
2022-11-02T21:14:50.761Z,10.97
2022-11-02T21:17:19.268Z,10.53
2022-11-02T21:19:54.226Z,10.37
2022-11-02T21:22:26.653Z,10.43
2022-11-02T21:24:55.195Z,10.53
2022-11-02T21:27:23.728Z,10.10
2022-11-02T21:29:52.291Z,10.90
2022-11-02T21:32:20.865Z,10.73
2022-11-02T21:34:50.789Z,11.27
2022-11-02T21:37:20.066Z,10.63
2022-11-02T21:39:48.854Z,10.10
2022-11-02T21:42:17.634Z,10.60
2022-11-02T21:44:46.391Z,10.33
2022-11-02T21:47:14.949Z,10.93
2022-11-02T21:49:44.093Z,11.40
2022-11-02T21:52:14.262Z,10.67
2022-11-02T21:54:43.121Z,10.20
2022-11-02T21:57:11.934Z,10.40
2022-11-02T21:59:41.015Z,10.40
2022-11-02T22:02:09.847Z,10.53
2022-11-02T22:04:38.706Z,10.40
2022-11-02T22:07:07.426Z,10.90
2022-11-02T22:09:37.921Z,10.93
2022-11-02T22:12:24.702Z,10.40
2022-11-02T22:14:53.509Z,10.10
2022-11-02T22:17:47.989Z,10.70
2022-11-02T22:20:12.804Z,10.10
2022-11-02T22:22:42.433Z,10.00
2022-11-02T22:25:12.719Z,10.97
2022-11-02T22:27:41.231Z,10.83
2022-11-02T22:30:11.130Z,10.67
2022-11-02T22:32:39.602Z,10.53
2022-11-02T22:35:08.870Z,10.30
2022-11-02T22:37:54.627Z,10.20
2022-11-02T22:40:24.596Z,10.93
2022-11-02T22:42:55.955Z,10.80
2022-11-02T22:45:24.605Z,10.50
2022-11-02T22:47:53.301Z,10.30
2022-11-02T22:50:23.811Z,10.47
2022-11-02T22:52:56.298Z,10.83
2022-11-02T22:55:26.220Z,10.70
2022-11-02T22:57:59.734Z,10.73
2022-11-02T23:00:28.727Z,10.87
2022-11-02T23:02:57.308Z,10.40
2022-11-02T23:05:25.873Z,10.97
2022-11-02T23:07:54.436Z,10.10
2022-11-02T23:10:40.520Z,11.97
2022-11-02T23:13:10.381Z,10.63
2022-11-02T23:15:38.988Z,10.43
2022-11-02T23:18:07.513Z,10.37
2022-11-02T23:20:35.083Z,10.33
2022-11-02T23:23:20.906Z,10.93
2022-11-02T23:25:56.583Z,11.23
2022-11-02T23:28:44.007Z,11.40
2022-11-02T23:31:30.132Z,11.10
2022-11-02T23:33:58.715Z,10.80
2022-11-02T23:36:26.197Z,10.47
2022-11-02T23:39:12.165Z,10.53
2022-11-02T23:41:41.628Z,10.83
2022-11-02T23:44:14.234Z,11.40
2022-11-02T23:46:44.895Z,11.47
2022-11-02T23:49:14.209Z,11.00
2022-11-02T23:52:00.023Z,11.57
2022-11-02T23:54:46.053Z,10.83
2022-11-02T23:57:14.720Z,10.83
2022-11-02T23:59:44.836Z,11.07
